createdAt,value
2019-04-14T00:02:03.191Z,44.23
2019-04-14T00:04:40.202Z,42.00
2019-04-14T00:07:12.351Z,43.47
2019-04-14T00:09:54.394Z,41.77
2019-04-14T00:12:27.624Z,43.53
2019-04-14T00:15:02.500Z,44.47
2019-04-14T00:17:34.894Z,44.93
2019-04-14T00:20:07.441Z,43.47
2019-04-14T00:22:42.484Z,43.43
2019-04-14T00:25:17.328Z,42.80
2019-04-14T00:27:52.113Z,47.77
2019-04-14T00:30:25.218Z,47.10
2019-04-14T00:33:02.126Z,48.77
2019-04-14T00:35:53.746Z,49.07
2019-04-14T00:38:32.576Z,48.40
2019-04-14T00:41:20.206Z,48.67
2019-04-14T00:44:09.927Z,48.23
2019-04-14T00:46:47.389Z,50.57
2019-04-14T00:49:20.018Z,50.83
2019-04-14T00:51:54.909Z,48.87
2019-04-14T00:54:28.254Z,46.87
2019-04-14T00:57:00.537Z,50.80
2019-04-14T00:59:33.403Z,49.20
2019-04-14T01:02:05.863Z,45.57
2019-04-14T01:04:38.294Z,47.37
2019-04-14T01:07:10.767Z,47.67
2019-04-14T01:09:41.574Z,47.77
2019-04-14T01:12:13.137Z,49.40
2019-04-14T01:14:45.275Z,50.57
2019-04-14T01:17:17.643Z,48.53
2019-04-14T01:19:48.814Z,49.37
2019-04-14T01:22:22.800Z,47.50
2019-04-14T01:24:55.324Z,48.03
2019-04-14T01:27:26.021Z,50.10
2019-04-14T01:30:00.345Z,48.30
2019-04-14T01:32:30.582Z,46.57
2019-04-14T01:35:01.134Z,45.73
2019-04-14T01:37:34.077Z,42.60
2019-04-14T01:40:05.491Z,47.00
2019-04-14T01:42:35.697Z,48.27
2019-04-14T01:45:08.519Z,46.57
2019-04-14T01:47:39.945Z,48.33
2019-04-14T01:50:10.744Z,46.50
2019-04-14T01:52:58.924Z,47.93
2019-04-14T01:55:54.870Z,47.77
2019-04-14T01:58:36.167Z,47.33
2019-04-14T02:01:15.178Z,47.07
2019-04-14T02:03:47.673Z,48.73
2019-04-14T02:06:20.073Z,48.27
2019-04-14T02:08:54.718Z,47.10
2019-04-14T02:11:27.540Z,51.23
2019-04-14T02:13:59.417Z,52.20
2019-04-14T02:16:39.230Z,50.70
2019-04-14T02:19:04.634Z,50.00
2019-04-14T02:21:38.895Z,51.77
2019-04-14T02:24:11.374Z,51.57
2019-04-14T02:26:47.966Z,49.17
2019-04-14T02:29:19.071Z,49.37
2019-04-14T02:32:21.462Z,49.60
2019-04-14T02:34:53.613Z,48.37
2019-04-14T02:37:26.633Z,50.27
2019-04-14T02:42:34.433Z,47.67
2019-04-14T02:45:00.074Z,48.80
2019-04-14T02:47:55.800Z,50.93
2019-04-14T02:50:19.126Z,49.00
2019-04-14T02:52:45.152Z,47.93
2019-04-14T02:55:10.873Z,48.23
2019-04-14T02:57:47.894Z,47.83
2019-04-14T03:02:51.483Z,49.60
2019-04-14T03:05:26.895Z,53.27
2019-04-14T03:08:04.138Z,49.17
2019-04-14T03:10:35.693Z,53.33
2019-04-14T03:13:13.451Z,48.10
2019-04-14T03:15:41.630Z,53.00
2019-04-14T03:18:38.226Z,52.00
2019-04-14T03:21:49.133Z,53.30
2019-04-14T03:24:27.371Z,50.97
2019-04-14T03:27:17.422Z,52.33
2019-04-14T03:29:43.289Z,50.07
2019-04-14T03:40:03.945Z,51.20
2019-04-14T03:42:37.606Z,52.33
2019-04-14T03:45:03.637Z,52.27
2019-04-14T03:47:34.128Z,53.17
2019-04-14T03:50:09.693Z,51.13
2019-04-14T03:52:53.352Z,55.53
2019-04-14T03:55:09.399Z,53.23
2019-04-14T03:57:27.888Z,52.67
2019-04-14T03:59:58.460Z,54.77
2019-04-14T04:02:29.806Z,53.33
2019-04-14T04:05:02.214Z,55.53
2019-04-14T04:07:34.846Z,54.47
2019-04-14T04:10:13.558Z,52.53
2019-04-14T04:12:46.528Z,52.87
2019-04-14T04:15:19.179Z,54.90
2019-04-14T04:18:02.684Z,51.63
2019-04-14T04:20:54.751Z,53.63
2019-04-14T04:23:43.104Z,53.60
2019-04-14T04:26:48.045Z,57.20
2019-04-14T04:29:26.583Z,54.27
2019-04-14T04:32:08.620Z,55.83
2019-04-14T04:34:53.906Z,56.40
2019-04-14T04:37:45.457Z,55.50
2019-04-14T04:40:24.703Z,54.33
2019-04-14T04:42:54.962Z,53.63
2019-04-14T04:45:27.794Z,56.53
2019-04-14T04:48:00.236Z,57.10
2019-04-14T04:50:32.395Z,58.73
2019-04-14T04:53:04.871Z,60.20
2019-04-14T04:55:35.952Z,56.33
2019-04-14T04:58:07.803Z,56.30
2019-04-14T05:00:39.899Z,57.17
2019-04-14T05:03:12.537Z,59.03
2019-04-14T05:06:20.902Z,57.97
2019-04-14T05:08:54.430Z,58.27
2019-04-14T05:11:33.765Z,56.03
2019-04-14T05:14:10.976Z,57.93
2019-04-14T05:16:42.520Z,58.30
2019-04-14T05:19:23.009Z,64.17
2019-04-14T05:21:47.300Z,59.67
2019-04-14T05:24:17.926Z,63.83
2019-04-14T05:26:48.705Z,59.83
2019-04-14T05:29:21.093Z,64.67
2019-04-14T05:31:53.330Z,59.20
2019-04-14T05:34:26.185Z,62.13
2019-04-14T05:36:58.847Z,61.93
2019-04-14T05:39:29.055Z,61.00
2019-04-14T05:42:06.569Z,62.43
2019-04-14T05:44:31.960Z,57.67
2019-04-14T05:47:02.420Z,61.37
2019-04-14T05:49:41.100Z,61.53
2019-04-14T05:52:07.772Z,54.70
2019-04-14T05:54:40.960Z,55.23
2019-04-14T05:57:11.298Z,62.60
2019-04-14T05:59:41.931Z,62.33
2019-04-14T06:02:13.675Z,64.70
2019-04-14T06:04:46.093Z,62.63
2019-04-14T06:07:17.061Z,60.93
2019-04-14T06:09:47.682Z,65.40
2019-04-14T06:12:17.927Z,66.33
2019-04-14T06:14:56.496Z,65.87
2019-04-14T06:17:27.868Z,66.33
2019-04-14T06:20:00.355Z,61.07
2019-04-14T06:22:32.887Z,60.77
2019-04-14T06:25:06.522Z,62.57
2019-04-14T06:27:38.338Z,61.73
2019-04-14T06:30:40.773Z,61.10
2019-04-14T06:33:27.320Z,62.00
2019-04-14T06:36:28.330Z,55.97
2019-04-14T06:39:08.006Z,61.20
2019-04-14T06:41:38.294Z,60.57
2019-04-14T06:44:09.038Z,57.33
2019-04-14T06:46:39.680Z,60.37
2019-04-14T06:49:10.897Z,58.37
2019-04-14T06:51:41.384Z,53.83
2019-04-14T06:54:11.583Z,54.10
2019-04-14T06:56:44.146Z,58.00
2019-04-14T06:59:14.333Z,53.83
2019-04-14T07:01:48.263Z,56.23
2019-04-14T07:04:19.177Z,52.80
2019-04-14T07:06:53.755Z,54.27
2019-04-14T07:09:23.968Z,54.93
2019-04-14T07:11:58.388Z,54.20
2019-04-14T07:14:31.759Z,54.03
2019-04-14T07:17:10.630Z,52.03
2019-04-14T07:19:41.714Z,49.83
2019-04-14T07:22:13.254Z,51.60
2019-04-14T07:24:50.803Z,49.77
2019-04-14T07:27:21.335Z,46.63
2019-04-14T07:30:15.001Z,49.87
2019-04-14T07:33:05.594Z,47.63
2019-04-14T07:35:56.170Z,46.60
2019-04-14T07:38:40.170Z,47.57
2019-04-14T07:41:33.217Z,43.57
2019-04-14T07:44:15.053Z,44.23
2019-04-14T07:47:11.715Z,43.23
2019-04-14T07:50:14.157Z,44.47
2019-04-14T07:52:53.067Z,41.37
2019-04-14T07:55:41.832Z,43.30
2019-04-14T07:58:32.649Z,40.77
2019-04-14T08:01:16.371Z,40.43
2019-04-14T08:04:10.530Z,40.93
2019-04-14T08:06:44.089Z,39.07
2019-04-14T08:09:14.708Z,41.67
2019-04-14T08:11:46.943Z,41.07
2019-04-14T08:14:19.854Z,38.93
2019-04-14T08:16:53.618Z,36.63
2019-04-14T08:19:25.271Z,39.33
2019-04-14T08:21:56.623Z,40.27
2019-04-14T08:24:27.703Z,36.97
2019-04-14T08:26:59.431Z,37.83
2019-04-14T08:29:31.718Z,37.93
2019-04-14T08:32:05.732Z,36.53
2019-04-14T08:34:38.061Z,36.43
2019-04-14T08:37:11.091Z,40.37
2019-04-14T08:39:42.856Z,35.70
2019-04-14T08:42:31.657Z,37.53
2019-04-14T08:45:09.648Z,35.80
2019-04-14T08:47:58.644Z,36.33
2019-04-14T08:50:39.599Z,37.63
2019-04-14T08:53:20.566Z,34.03
2019-04-14T08:56:08.612Z,34.87
2019-04-14T08:59:04.568Z,37.13
2019-04-14T09:01:58.644Z,42.50
2019-04-14T09:05:02.244Z,38.60
2019-04-14T09:07:54.994Z,36.90
2019-04-14T09:10:34.401Z,34.57
2019-04-14T09:13:05.050Z,38.03
2019-04-14T09:15:38.024Z,36.23
2019-04-14T09:18:10.822Z,37.33
2019-04-14T09:20:52.092Z,34.80
2019-04-14T09:23:19.441Z,38.80
2019-04-14T09:25:54.178Z,35.57
2019-04-14T09:28:29.572Z,32.60
2019-04-14T09:31:00.916Z,32.77
2019-04-14T09:33:35.458Z,33.40
2019-04-14T09:36:06.784Z,32.97
2019-04-14T09:38:37.824Z,35.20
2019-04-14T09:41:08.574Z,36.87
2019-04-14T09:43:40.741Z,35.20
2019-04-14T09:46:10.931Z,33.77
2019-04-14T09:48:43.065Z,31.30
2019-04-14T09:51:16.376Z,30.77
2019-04-14T09:53:48.945Z,33.43
2019-04-14T09:56:22.273Z,32.57
2019-04-14T09:58:52.609Z,33.23
2019-04-14T10:01:24.643Z,31.87
2019-04-14T10:03:55.122Z,31.53
2019-04-14T10:06:26.358Z,29.73
2019-04-14T10:09:00.846Z,29.80
2019-04-14T10:11:32.827Z,31.23
2019-04-14T10:14:03.149Z,30.93
2019-04-14T10:16:35.080Z,30.00
2019-04-14T10:19:05.506Z,30.87
2019-04-14T10:21:36.301Z,29.17
2019-04-14T10:24:08.429Z,30.80
2019-04-14T10:26:42.012Z,26.33
2019-04-14T10:29:16.153Z,32.87
2019-04-14T10:31:48.029Z,26.87
2019-04-14T10:34:18.709Z,28.50
2019-04-14T10:36:50.198Z,29.30
2019-04-14T10:39:22.496Z,27.67
2019-04-14T10:41:56.409Z,29.07
2019-04-14T10:44:31.458Z,27.83
2019-04-14T10:47:05.262Z,27.23
2019-04-14T10:49:38.779Z,26.60
2019-04-14T10:52:08.972Z,27.33
2019-04-14T10:54:42.960Z,28.97
2019-04-14T10:57:14.376Z,27.80
2019-04-14T10:59:47.264Z,29.23
2019-04-14T11:02:23.767Z,34.73
2019-04-14T11:04:54.335Z,31.07
2019-04-14T11:07:29.532Z,28.60
2019-04-14T11:10:01.540Z,27.63
2019-04-14T11:12:33.767Z,29.57
2019-04-14T11:15:06.558Z,32.67
2019-04-14T11:17:37.837Z,28.50
2019-04-14T11:20:09.949Z,32.03
2019-04-14T11:22:42.536Z,31.37
2019-04-14T11:25:14.267Z,25.70
2019-04-14T11:27:45.239Z,23.90
2019-04-14T11:30:20.144Z,23.00
2019-04-14T11:33:14.293Z,23.80
2019-04-14T11:35:54.946Z,26.30
2019-04-14T11:38:33.571Z,26.73
2019-04-14T11:41:13.698Z,22.43
2019-04-14T11:43:49.371Z,21.50
2019-04-14T11:46:20.473Z,22.03
2019-04-14T11:48:54.150Z,19.67
2019-04-14T11:51:28.499Z,22.73
2019-04-14T11:54:06.417Z,19.37
2019-04-14T11:56:41.886Z,20.70
2019-04-14T11:59:15.021Z,19.87
2019-04-14T12:02:07.394Z,21.10
2019-04-14T12:04:51.758Z,20.13
2019-04-14T12:07:48.689Z,19.37
2019-04-14T12:10:24.653Z,25.20
2019-04-14T12:13:11.488Z,20.10
2019-04-14T12:16:08.821Z,21.17
2019-04-14T12:22:16.204Z,19.53
2019-04-14T12:24:51.455Z,19.30
2019-04-14T12:27:28.453Z,19.30
2019-04-14T12:30:01.523Z,21.07
2019-04-14T12:32:39.387Z,21.60
2019-04-14T12:35:12.249Z,18.63
2019-04-14T12:37:47.655Z,19.20
2019-04-14T12:40:19.932Z,16.63
2019-04-14T12:43:09.908Z,21.40
2019-04-14T12:45:54.791Z,16.27
2019-04-14T12:48:46.373Z,19.00
2019-04-14T12:51:29.196Z,16.67
2019-04-14T12:54:04.167Z,18.07
2019-04-14T12:56:47.755Z,15.10
2019-04-14T12:59:23.351Z,17.13
2019-04-14T13:02:07.547Z,19.00
2019-04-14T13:04:38.194Z,16.37
2019-04-14T13:07:09.643Z,19.93
2019-04-14T13:09:50.834Z,17.47
2019-04-14T13:12:24.476Z,17.20
2019-04-14T13:14:57.604Z,16.52
2019-04-14T13:17:32.001Z,17.07
2019-04-14T13:20:06.224Z,16.12
2019-04-14T13:22:39.973Z,19.73
2019-04-14T13:25:12.231Z,18.75
2019-04-14T13:27:42.895Z,15.38
2019-04-14T13:30:17.188Z,16.37
2019-04-14T13:32:48.968Z,20.77
2019-04-14T13:35:21.262Z,18.90
2019-04-14T13:37:52.583Z,19.55
2019-04-14T13:40:34.712Z,18.82
2019-04-14T13:43:12.682Z,16.27
2019-04-14T13:45:50.618Z,16.70
2019-04-14T13:48:30.397Z,19.40
2019-04-14T13:51:20.923Z,16.57
2019-04-14T13:53:52.854Z,18.23
2019-04-14T13:56:24.008Z,13.78
2019-04-14T13:58:54.633Z,16.75
2019-04-14T14:01:28.854Z,16.48
2019-04-14T14:04:11.155Z,15.90
2019-04-14T14:06:58.749Z,16.52
2019-04-14T14:09:31.207Z,15.72
2019-04-14T14:12:16.631Z,15.80
2019-04-14T14:15:10.873Z,15.70
2019-04-14T14:18:06.051Z,18.00
2019-04-14T14:20:59.489Z,14.75
2019-04-14T14:23:58.208Z,15.43
2019-04-14T14:26:29.533Z,16.40
2019-04-14T14:29:04.139Z,16.55
2019-04-14T14:31:42.112Z,17.98
2019-04-14T14:34:16.313Z,17.12
2019-04-14T14:36:47.803Z,17.60
2019-04-14T14:39:21.463Z,15.78
2019-04-14T14:42:01.923Z,14.23
2019-04-14T14:44:43.312Z,14.63
2019-04-14T14:47:23.429Z,14.87
2019-04-14T14:50:24.988Z,16.87
2019-04-14T14:52:56.909Z,16.05
2019-04-14T14:55:27.599Z,16.07
2019-04-14T14:58:00.168Z,16.42
2019-04-14T15:00:36.520Z,16.82
2019-04-14T15:03:10.164Z,18.40
2019-04-14T15:05:42.949Z,17.37
2019-04-14T15:08:16.962Z,16.07
2019-04-14T15:10:52.380Z,18.60
2019-04-14T15:13:24.197Z,22.60
2019-04-14T15:15:57.778Z,17.35
2019-04-14T15:18:28.999Z,17.60
2019-04-14T15:21:02.403Z,15.27
2019-04-14T15:23:36.206Z,18.42
2019-04-14T15:26:08.460Z,17.05
2019-04-14T15:28:39.244Z,19.75
2019-04-14T15:31:11.143Z,20.08
2019-04-14T15:33:42.161Z,18.43
2019-04-14T15:36:13.218Z,23.20
2019-04-14T15:38:48.338Z,20.57
2019-04-14T15:41:23.194Z,22.33
2019-04-14T15:43:56.510Z,18.87
2019-04-14T15:46:30.119Z,22.07
2019-04-14T15:49:01.781Z,27.17
2019-04-14T15:51:32.851Z,22.07
2019-04-14T15:54:09.582Z,23.97
2019-04-14T15:56:59.714Z,22.87
2019-04-14T15:59:54.159Z,22.37
2019-04-14T16:02:46.468Z,22.83
2019-04-14T16:05:45.933Z,19.33
2019-04-14T16:08:24.561Z,22.67
2019-04-14T16:11:03.008Z,20.93
2019-04-14T16:13:40.168Z,22.47
2019-04-14T16:16:27.995Z,22.17
2019-04-14T16:19:14.389Z,27.17
2019-04-14T16:21:49.453Z,26.37
2019-04-14T16:24:26.097Z,23.33
2019-04-14T16:27:17.809Z,22.57
2019-04-14T16:29:59.737Z,25.77
2019-04-14T16:32:48.452Z,23.73
2019-04-14T16:35:22.265Z,20.67
2019-04-14T16:37:54.253Z,24.90
2019-04-14T16:40:25.790Z,27.67
2019-04-14T16:42:57.789Z,22.30
2019-04-14T16:45:29.407Z,25.80
2019-04-14T16:48:01.908Z,25.53
2019-04-14T16:50:39.759Z,24.47
2019-04-14T16:53:27.077Z,26.43
2019-04-14T16:56:14.885Z,25.37
2019-04-14T16:58:55.765Z,23.10
2019-04-14T17:04:21.565Z,25.60
2019-04-14T17:04:53.935Z,28.60
2019-04-14T17:07:43.488Z,24.23
2019-04-14T17:10:15.655Z,25.30
2019-04-14T17:13:13.573Z,25.37
2019-04-14T17:15:56.998Z,23.30
2019-04-14T17:18:52.344Z,26.23
2019-04-14T17:22:20.064Z,27.90
2019-04-14T17:25:08.900Z,23.50
2019-04-14T17:27:56.435Z,23.60
2019-04-14T17:30:49.227Z,26.53
2019-04-14T17:33:24.489Z,26.33
2019-04-14T17:36:30.442Z,24.20
2019-04-14T17:39:39.083Z,22.23
2019-04-14T17:46:01.301Z,105.90
2019-04-14T17:48:44.668Z,27.73
2019-04-14T17:51:27.072Z,28.97
2019-04-14T17:54:29.798Z,29.23
2019-04-14T17:57:23.468Z,27.20
2019-04-14T18:00:04.569Z,22.57
2019-04-14T18:02:48.251Z,23.60
2019-04-14T18:05:29.458Z,24.23
2019-04-14T18:08:08.050Z,22.50
2019-04-14T18:11:00.336Z,26.60
2019-04-14T18:13:52.016Z,23.93
2019-04-14T18:16:30.892Z,34.87
2019-04-14T18:19:21.113Z,26.80
2019-04-14T18:21:52.966Z,25.20
2019-04-14T18:24:23.171Z,25.33
2019-04-14T18:26:54.532Z,25.03
2019-04-14T18:29:50.871Z,28.77
2019-04-14T18:32:44.260Z,26.07
2019-04-14T18:35:34.656Z,26.67
2019-04-14T18:38:26.161Z,25.90
2019-04-14T18:41:04.469Z,44.73
2019-04-14T18:43:57.458Z,24.00
2019-04-14T18:46:47.228Z,23.73
2019-04-14T18:49:43.285Z,31.13
2019-04-14T18:52:39.359Z,25.23
2019-04-14T18:55:34.805Z,24.43
2019-04-14T18:58:31.815Z,25.20
2019-04-14T19:01:07.467Z,22.47
2019-04-14T19:03:38.982Z,22.67
2019-04-14T19:06:10.372Z,23.73
2019-04-14T19:08:44.469Z,24.87
2019-04-14T19:11:41.597Z,24.33
2019-04-14T19:14:16.390Z,25.83
2019-04-14T19:16:51.188Z,31.70
2019-04-14T19:19:22.663Z,23.93
2019-04-14T19:21:54.084Z,25.20
2019-04-14T19:24:24.314Z,23.43
2019-04-14T19:26:55.711Z,25.00
2019-04-14T19:29:27.846Z,28.37
2019-04-14T19:31:59.038Z,27.77
2019-04-14T19:34:30.604Z,26.90
2019-04-14T19:37:02.967Z,24.60
2019-04-14T19:39:35.851Z,27.63
2019-04-14T19:42:06.443Z,26.93
2019-04-14T19:44:38.786Z,26.63
2019-04-14T19:47:10.267Z,27.93
2019-04-14T19:49:41.512Z,26.57
2019-04-14T19:52:12.051Z,27.00
2019-04-14T19:54:44.396Z,23.67
2019-04-14T19:57:15.866Z,25.27
2019-04-14T20:00:04.590Z,22.50
2019-04-14T20:02:39.376Z,32.33
2019-04-14T20:05:15.855Z,23.43
2019-04-14T20:07:51.563Z,21.93
2019-04-14T20:10:23.788Z,23.00
2019-04-14T20:12:56.431Z,20.83
2019-04-14T20:15:31.831Z,23.13
2019-04-14T20:18:22.542Z,22.77
2019-04-14T20:21:19.811Z,21.97
2019-04-14T20:24:09.985Z,24.13
2019-04-14T20:27:05.243Z,20.87
2019-04-14T20:29:47.104Z,22.90
2019-04-14T20:32:23.750Z,21.87
2019-04-14T20:35:07.866Z,20.00
2019-04-14T20:37:38.700Z,21.27
2019-04-14T20:40:10.997Z,22.50
2019-04-14T20:42:43.935Z,22.13
2019-04-14T20:45:14.987Z,19.53
2019-04-14T20:47:47.315Z,24.27
2019-04-14T20:50:18.086Z,22.20
2019-04-14T20:52:49.036Z,21.50
2019-04-14T20:55:20.215Z,21.07
2019-04-14T20:57:50.845Z,21.20
2019-04-14T21:00:22.270Z,21.40
2019-04-14T21:03:30.986Z,21.23
2019-04-14T21:06:10.434Z,20.07
2019-04-14T21:08:59.387Z,21.23
2019-04-14T21:11:42.658Z,19.43
2019-04-14T21:14:31.234Z,19.43
2019-04-14T21:17:12.668Z,21.80
2019-04-14T21:20:00.701Z,21.50
2019-04-14T21:22:48.593Z,21.47
2019-04-14T21:25:41.608Z,20.70
2019-04-14T21:28:30.030Z,21.30
2019-04-14T21:31:19.176Z,20.67
2019-04-14T21:34:03.576Z,18.33
2019-04-14T21:36:39.537Z,19.70
2019-04-14T21:39:29.083Z,18.27
2019-04-14T21:41:59.378Z,21.27
2019-04-14T21:44:30.156Z,20.87
2019-04-14T21:47:00.448Z,18.10
2019-04-14T21:49:32.518Z,20.70
2019-04-14T21:52:22.222Z,21.13
2019-04-14T21:54:53.706Z,21.53
2019-04-14T21:57:45.543Z,19.60
2019-04-14T22:00:40.195Z,18.03
2019-04-14T22:03:29.106Z,20.27
2019-04-14T22:06:17.762Z,19.77
2019-04-14T22:08:53.058Z,19.80
2019-04-14T22:11:25.128Z,21.10
2019-04-14T22:13:55.339Z,17.27
2019-04-14T22:16:26.862Z,18.73
2019-04-14T22:18:57.802Z,17.27
2019-04-14T22:21:29.489Z,17.40
2019-04-14T22:24:01.841Z,18.03
2019-04-14T22:26:31.658Z,15.67
2019-04-14T22:29:02.820Z,15.93
2019-04-14T22:31:33.758Z,15.97
2019-04-14T22:34:03.945Z,18.03
2019-04-14T22:36:34.146Z,18.73
2019-04-14T22:39:07.256Z,14.93
2019-04-14T22:41:40.550Z,14.97
2019-04-14T22:44:11.442Z,14.50
2019-04-14T22:46:42.904Z,14.60
2019-04-14T22:49:13.648Z,14.87
2019-04-14T22:51:44.142Z,14.60
2019-04-14T22:54:15.136Z,14.60
2019-04-14T22:56:47.717Z,14.03
2019-04-14T22:59:22.303Z,12.97
2019-04-14T23:02:00.990Z,14.27
2019-04-14T23:04:56.330Z,15.10
2019-04-14T23:07:54.898Z,12.50
2019-04-14T23:10:50.304Z,12.13
2019-04-14T23:13:26.438Z,11.83
2019-04-14T23:16:18.580Z,12.57
2019-04-14T23:18:57.022Z,13.33
2019-04-14T23:21:44.112Z,12.03
2019-04-14T23:24:31.428Z,10.97
2019-04-14T23:27:04.625Z,11.27
2019-04-14T23:29:36.831Z,10.80
2019-04-14T23:32:07.125Z,10.77
2019-04-14T23:34:37.813Z,12.93
2019-04-14T23:37:08.334Z,10.27
2019-04-14T23:39:39.809Z,10.23
2019-04-14T23:42:13.596Z,10.53
2019-04-14T23:44:43.761Z,10.27
2019-04-14T23:47:14.219Z,11.13
2019-04-14T23:49:44.488Z,10.30
2019-04-14T23:52:16.378Z,9.77
2019-04-14T23:54:47.603Z,11.07
2019-04-14T23:57:19.947Z,9.23
2019-04-14T23:59:51.396Z,9.43
